sensor_id;sensor_type;location;lat;lon;timestamp;P1;durP1;ratioP1;P2;durP2;ratioP2
33421;SDS011;19763;55.798;37.782;2023-01-04T00:02:19;0.40;;;0.40;;
33421;SDS011;19763;55.798;37.782;2023-01-04T00:04:45;1.60;;;0.57;;
33421;SDS011;19763;55.798;37.782;2023-01-04T00:07:11;0.55;;;0.55;;
33421;SDS011;19763;55.798;37.782;2023-01-04T00:09:36;0.40;;;0.40;;
33421;SDS011;19763;55.798;37.782;2023-01-04T00:12:02;0.43;;;0.43;;
33421;SDS011;19763;55.798;37.782;2023-01-04T00:14:28;0.82;;;0.55;;
33421;SDS011;19763;55.798;37.782;2023-01-04T00:16:53;0.52;;;0.52;;
33421;SDS011;19763;55.798;37.782;2023-01-04T00:19:19;0.32;;;0.32;;
33421;SDS011;19763;55.798;37.782;2023-01-04T00:21:45;0.60;;;0.50;;
33421;SDS011;19763;55.798;37.782;2023-01-04T00:24:10;0.70;;;0.50;;
33421;SDS011;19763;55.798;37.782;2023-01-04T00:26:39;2.20;;;0.65;;
33421;SDS011;19763;55.798;37.782;2023-01-04T00:29:05;0.88;;;0.60;;
33421;SDS011;19763;55.798;37.782;2023-01-04T00:31:32;0.88;;;0.70;;
33421;SDS011;19763;55.798;37.782;2023-01-04T00:33:59;1.10;;;0.98;;
33421;SDS011;19763;55.798;37.782;2023-01-04T00:36:26;1.52;;;1.42;;
33421;SDS011;19763;55.798;37.782;2023-01-04T00:38:52;1.88;;;1.60;;
33421;SDS011;19763;55.798;37.782;2023-01-04T00:41:38;2.13;;;1.88;;
33421;SDS011;19763;55.798;37.782;2023-01-04T00:44:06;2.30;;;1.77;;
33421;SDS011;19763;55.798;37.782;2023-01-04T00:46:33;2.40;;;2.20;;
33421;SDS011;19763;55.798;37.782;2023-01-04T00:48:59;2.58;;;2.22;;
33421;SDS011;19763;55.798;37.782;2023-01-04T00:51:26;2.10;;;1.90;;
33421;SDS011;19763;55.798;37.782;2023-01-04T00:53:52;2.95;;;2.30;;
33421;SDS011;19763;55.798;37.782;2023-01-04T00:56:18;3.42;;;2.45;;
33421;SDS011;19763;55.798;37.782;2023-01-04T00:58:44;3.38;;;2.28;;
33421;SDS011;19763;55.798;37.782;2023-01-04T01:01:09;3.45;;;2.47;;
33421;SDS011;19763;55.798;37.782;2023-01-04T01:03:35;3.70;;;2.80;;
33421;SDS011;19763;55.798;37.782;2023-01-04T01:06:01;3.42;;;2.70;;
33421;SDS011;19763;55.798;37.782;2023-01-04T01:08:29;2.92;;;2.45;;
33421;SDS011;19763;55.798;37.782;2023-01-04T01:11:01;2.85;;;2.55;;
33421;SDS011;19763;55.798;37.782;2023-01-04T01:13:33;2.38;;;2.17;;
33421;SDS011;19763;55.798;37.782;2023-01-04T01:16:01;3.38;;;2.38;;
33421;SDS011;19763;55.798;37.782;2023-01-04T01:18:28;3.35;;;2.70;;
33421;SDS011;19763;55.798;37.782;2023-01-04T01:20:54;2.97;;;2.53;;
33421;SDS011;19763;55.798;37.782;2023-01-04T01:23:20;4.00;;;2.85;;
33421;SDS011;19763;55.798;37.782;2023-01-04T01:25:45;4.10;;;2.95;;
33421;SDS011;19763;55.798;37.782;2023-01-04T01:28:11;3.22;;;2.67;;
33421;SDS011;19763;55.798;37.782;2023-01-04T01:30:40;2.78;;;2.30;;
33421;SDS011;19763;55.798;37.782;2023-01-04T01:33:07;3.85;;;2.50;;
33421;SDS011;19763;55.798;37.782;2023-01-04T01:35:33;3.33;;;2.67;;
33421;SDS011;19763;55.798;37.782;2023-01-04T01:38:00;3.05;;;2.60;;
33421;SDS011;19763;55.798;37.782;2023-01-04T01:40:26;3.47;;;2.83;;
33421;SDS011;19763;55.798;37.782;2023-01-04T01:42:52;3.85;;;2.25;;
33421;SDS011;19763;55.798;37.782;2023-01-04T01:45:27;3.70;;;3.08;;
33421;SDS011;19763;55.798;37.782;2023-01-04T01:47:56;4.50;;;2.50;;
33421;SDS011;19763;55.798;37.782;2023-01-04T01:50:32;3.78;;;2.25;;
33421;SDS011;19763;55.798;37.782;2023-01-04T01:53:06;3.40;;;2.60;;
33421;SDS011;19763;55.798;37.782;2023-01-04T01:55:34;3.38;;;2.83;;
33421;SDS011;19763;55.798;37.782;2023-01-04T01:58:01;3.78;;;2.83;;
33421;SDS011;19763;55.798;37.782;2023-01-04T02:00:29;3.80;;;2.50;;
33421;SDS011;19763;55.798;37.782;2023-01-04T02:03:29;3.80;;;2.63;;
33421;SDS011;19763;55.798;37.782;2023-01-04T02:05:49;3.35;;;2.67;;
33421;SDS011;19763;55.798;37.782;2023-01-04T02:08:16;3.22;;;2.92;;
33421;SDS011;19763;55.798;37.782;2023-01-04T02:10:46;3.63;;;2.72;;
33421;SDS011;19763;55.798;37.782;2023-01-04T02:13:14;2.60;;;2.20;;
33421;SDS011;19763;55.798;37.782;2023-01-04T02:19:32;4.20;;;2.47;;
33421;SDS011;19763;55.798;37.782;2023-01-04T02:32:44;4.60;;;2.83;;
33421;SDS011;19763;55.798;37.782;2023-01-04T02:37:57;3.45;;;2.80;;
33421;SDS011;19763;55.798;37.782;2023-01-04T02:40:31;4.13;;;3.08;;
33421;SDS011;19763;55.798;37.782;2023-01-04T02:43:51;3.97;;;2.70;;
33421;SDS011;19763;55.798;37.782;2023-01-04T02:46:20;3.45;;;3.03;;
33421;SDS011;19763;55.798;37.782;2023-01-04T02:48:53;3.83;;;3.03;;
33421;SDS011;19763;55.798;37.782;2023-01-04T02:51:37;4.68;;;3.22;;
33421;SDS011;19763;55.798;37.782;2023-01-04T02:54:04;3.80;;;3.00;;
33421;SDS011;19763;55.798;37.782;2023-01-04T02:56:40;4.10;;;3.45;;
33421;SDS011;19763;55.798;37.782;2023-01-04T03:08:22;4.88;;;3.50;;
33421;SDS011;19763;55.798;37.782;2023-01-04T03:10:58;5.88;;;3.95;;
33421;SDS011;19763;55.798;37.782;2023-01-04T03:13:30;4.70;;;3.75;;
33421;SDS011;19763;55.798;37.782;2023-01-04T03:16:06;4.68;;;4.03;;
33421;SDS011;19763;55.798;37.782;2023-01-04T03:18:39;4.43;;;3.58;;
33421;SDS011;19763;55.798;37.782;2023-01-04T03:21:08;4.18;;;3.45;;
33421;SDS011;19763;55.798;37.782;2023-01-04T03:23:36;4.28;;;3.60;;
33421;SDS011;19763;55.798;37.782;2023-01-04T03:26:28;3.67;;;3.00;;
33421;SDS011;19763;55.798;37.782;2023-01-04T03:29:24;4.43;;;3.63;;
33421;SDS011;19763;55.798;37.782;2023-01-04T03:32:27;4.28;;;3.45;;
33421;SDS011;19763;55.798;37.782;2023-01-04T03:35:29;4.63;;;3.47;;
33421;SDS011;19763;55.798;37.782;2023-01-04T03:40:56;3.42;;;3.10;;
33421;SDS011;19763;55.798;37.782;2023-01-04T03:44:15;4.13;;;2.63;;
33421;SDS011;19763;55.798;37.782;2023-01-04T03:47:59;3.40;;;3.10;;
33421;SDS011;19763;55.798;37.782;2023-01-04T03:50:46;3.35;;;2.75;;
33421;SDS011;19763;55.798;37.782;2023-01-04T03:53:24;3.20;;;2.70;;
33421;SDS011;19763;55.798;37.782;2023-01-04T03:55:51;4.35;;;2.38;;
33421;SDS011;19763;55.798;37.782;2023-01-04T03:58:18;4.18;;;2.60;;
33421;SDS011;19763;55.798;37.782;2023-01-04T04:00:45;2.40;;;2.20;;
33421;SDS011;19763;55.798;37.782;2023-01-04T04:03:11;2.38;;;2.08;;
33421;SDS011;19763;55.798;37.782;2023-01-04T04:05:38;3.03;;;2.45;;
33421;SDS011;19763;55.798;37.782;2023-01-04T04:08:24;2.78;;;2.03;;
33421;SDS011;19763;55.798;37.782;2023-01-04T04:10:54;4.63;;;2.50;;
33421;SDS011;19763;55.798;37.782;2023-01-04T04:13:22;2.53;;;2.13;;
33421;SDS011;19763;55.798;37.782;2023-01-04T04:15:50;2.90;;;2.10;;
33421;SDS011;19763;55.798;37.782;2023-01-04T04:18:16;2.42;;;2.00;;
33421;SDS011;19763;55.798;37.782;2023-01-04T04:20:42;2.45;;;2.22;;
33421;SDS011;19763;55.798;37.782;2023-01-04T04:23:07;2.42;;;2.10;;
33421;SDS011;19763;55.798;37.782;2023-01-04T04:25:33;4.22;;;2.35;;
33421;SDS011;19763;55.798;37.782;2023-01-04T04:27:59;3.90;;;2.40;;
33421;SDS011;19763;55.798;37.782;2023-01-04T04:30:24;3.65;;;2.50;;
33421;SDS011;19763;55.798;37.782;2023-01-04T04:32:50;3.15;;;2.38;;
33421;SDS011;19763;55.798;37.782;2023-01-04T04:35:15;2.67;;;2.28;;
33421;SDS011;19763;55.798;37.782;2023-01-04T04:37:41;2.88;;;2.38;;
33421;SDS011;19763;55.798;37.782;2023-01-04T04:40:07;3.40;;;2.85;;
33421;SDS011;19763;55.798;37.782;2023-01-04T04:42:53;3.38;;;2.30;;
33421;SDS011;19763;55.798;37.782;2023-01-04T04:45:18;4.25;;;2.45;;
33421;SDS011;19763;55.798;37.782;2023-01-04T04:47:44;2.85;;;2.30;;
33421;SDS011;19763;55.798;37.782;2023-01-04T04:50:09;3.03;;;2.40;;
33421;SDS011;19763;55.798;37.782;2023-01-04T04:52:35;2.20;;;2.00;;
33421;SDS011;19763;55.798;37.782;2023-01-04T04:55:00;3.10;;;2.03;;
33421;SDS011;19763;55.798;37.782;2023-01-04T04:57:26;3.08;;;2.13;;
33421;SDS011;19763;55.798;37.782;2023-01-04T04:59:51;3.38;;;2.22;;
33421;SDS011;19763;55.798;37.782;2023-01-04T05:02:17;2.28;;;2.00;;
33421;SDS011;19763;55.798;37.782;2023-01-04T05:04:42;2.75;;;2.47;;
33421;SDS011;19763;55.798;37.782;2023-01-04T05:07:08;2.42;;;1.90;;
33421;SDS011;19763;55.798;37.782;2023-01-04T05:09:33;2.15;;;1.95;;
33421;SDS011;19763;55.798;37.782;2023-01-04T05:11:59;2.22;;;1.92;;
33421;SDS011;19763;55.798;37.782;2023-01-04T05:14:43;1.95;;;1.75;;
33421;SDS011;19763;55.798;37.782;2023-01-04T05:17:09;3.78;;;1.73;;
33421;SDS011;19763;55.798;37.782;2023-01-04T05:19:35;3.63;;;2.13;;
33421;SDS011;19763;55.798;37.782;2023-01-04T05:22:00;2.83;;;1.80;;
33421;SDS011;19763;55.798;37.782;2023-01-04T05:24:26;2.30;;;1.60;;
33421;SDS011;19763;55.798;37.782;2023-01-04T05:26:51;2.30;;;1.75;;
33421;SDS011;19763;55.798;37.782;2023-01-04T05:29:17;2.92;;;1.70;;
33421;SDS011;19763;55.798;37.782;2023-01-04T05:32:01;2.35;;;2.03;;
33421;SDS011;19763;55.798;37.782;2023-01-04T05:34:27;2.60;;;2.05;;
33421;SDS011;19763;55.798;37.782;2023-01-04T05:36:52;3.13;;;1.80;;
33421;SDS011;19763;55.798;37.782;2023-01-04T05:39:18;1.80;;;1.60;;
33421;SDS011;19763;55.798;37.782;2023-01-04T05:41:43;3.15;;;1.88;;
33421;SDS011;19763;55.798;37.782;2023-01-04T05:44:27;3.38;;;1.80;;
33421;SDS011;19763;55.798;37.782;2023-01-04T05:46:53;1.90;;;1.70;;
33421;SDS011;19763;55.798;37.782;2023-01-04T05:49:18;1.90;;;1.70;;
33421;SDS011;19763;55.798;37.782;2023-01-04T05:51:45;3.55;;;1.90;;
33421;SDS011;19763;55.798;37.782;2023-01-04T05:54:10;2.75;;;2.03;;
33421;SDS011;19763;55.798;37.782;2023-01-04T05:56:36;2.80;;;1.83;;
33421;SDS011;19763;55.798;37.782;2023-01-04T05:59:01;1.65;;;1.55;;
33421;SDS011;19763;55.798;37.782;2023-01-04T06:01:27;3.58;;;2.15;;
33421;SDS011;19763;55.798;37.782;2023-01-04T06:03:52;2.15;;;1.77;;
33421;SDS011;19763;55.798;37.782;2023-01-04T06:06:18;2.08;;;1.63;;
33421;SDS011;19763;55.798;37.782;2023-01-04T06:08:43;2.35;;;1.80;;
33421;SDS011;19763;55.798;37.782;2023-01-04T06:11:09;3.85;;;1.80;;
33421;SDS011;19763;55.798;37.782;2023-01-04T06:13:34;2.08;;;1.88;;
33421;SDS011;19763;55.798;37.782;2023-01-04T06:16:00;2.72;;;1.88;;
33421;SDS011;19763;55.798;37.782;2023-01-04T06:18:26;2.90;;;1.88;;
33421;SDS011;19763;55.798;37.782;2023-01-04T06:20:51;2.63;;;2.13;;
33421;SDS011;19763;55.798;37.782;2023-01-04T06:23:17;3.67;;;1.90;;
33421;SDS011;19763;55.798;37.782;2023-01-04T06:25:42;2.58;;;2.05;;
33421;SDS011;19763;55.798;37.782;2023-01-04T06:28:08;2.28;;;1.83;;
33421;SDS011;19763;55.798;37.782;2023-01-04T06:30:33;2.88;;;2.00;;
33421;SDS011;19763;55.798;37.782;2023-01-04T06:32:59;3.42;;;2.00;;
33421;SDS011;19763;55.798;37.782;2023-01-04T06:35:25;1.90;;;1.70;;
33421;SDS011;19763;55.798;37.782;2023-01-04T06:37:50;4.95;;;1.80;;
33421;SDS011;19763;55.798;37.782;2023-01-04T06:40:16;1.67;;;1.58;;
33421;SDS011;19763;55.798;37.782;2023-01-04T06:42:41;2.42;;;2.08;;
33421;SDS011;19763;55.798;37.782;2023-01-04T06:45:10;2.65;;;2.05;;
33421;SDS011;19763;55.798;37.782;2023-01-04T06:47:38;2.67;;;1.70;;
33421;SDS011;19763;55.798;37.782;2023-01-04T06:50:06;3.35;;;1.80;;
33421;SDS011;19763;55.798;37.782;2023-01-04T06:52:32;2.10;;;1.70;;
33421;SDS011;19763;55.798;37.782;2023-01-04T06:54:57;2.90;;;2.00;;
33421;SDS011;19763;55.798;37.782;2023-01-04T06:57:23;3.40;;;2.30;;
33421;SDS011;19763;55.798;37.782;2023-01-04T06:59:48;2.13;;;1.88;;
33421;SDS011;19763;55.798;37.782;2023-01-04T07:02:14;2.00;;;1.75;;
33421;SDS011;19763;55.798;37.782;2023-01-04T07:04:40;2.67;;;2.35;;
33421;SDS011;19763;55.798;37.782;2023-01-04T07:07:06;2.33;;;2.13;;
33421;SDS011;19763;55.798;37.782;2023-01-04T07:09:32;2.67;;;2.13;;
33421;SDS011;19763;55.798;37.782;2023-01-04T07:11:58;2.42;;;2.00;;
33421;SDS011;19763;55.798;37.782;2023-01-04T07:14:24;2.95;;;2.40;;
33421;SDS011;19763;55.798;37.782;2023-01-04T07:16:49;2.72;;;1.90;;
33421;SDS011;19763;55.798;37.782;2023-01-04T07:19:15;1.98;;;1.75;;
33421;SDS011;19763;55.798;37.782;2023-01-04T07:21:40;3.70;;;1.90;;
33421;SDS011;19763;55.798;37.782;2023-01-04T07:24:06;2.58;;;1.88;;
33421;SDS011;19763;55.798;37.782;2023-01-04T07:26:32;1.90;;;1.70;;
33421;SDS011;19763;55.798;37.782;2023-01-04T07:28:58;2.03;;;1.67;;
33421;SDS011;19763;55.798;37.782;2023-01-04T07:31:40;2.80;;;1.98;;
33421;SDS011;19763;55.798;37.782;2023-01-04T07:34:06;2.10;;;1.95;;
33421;SDS011;19763;55.798;37.782;2023-01-04T07:36:31;4.57;;;2.28;;
33421;SDS011;19763;55.798;37.782;2023-01-04T07:39:00;2.67;;;2.10;;
33421;SDS011;19763;55.798;37.782;2023-01-04T07:41:26;3.03;;;1.67;;
33421;SDS011;19763;55.798;37.782;2023-01-04T07:43:51;2.97;;;2.15;;
33421;SDS011;19763;55.798;37.782;2023-01-04T07:46:17;2.50;;;2.22;;
33421;SDS011;19763;55.798;37.782;2023-01-04T07:48:43;2.33;;;2.00;;
33421;SDS011;19763;55.798;37.782;2023-01-04T07:51:08;2.60;;;2.20;;
33421;SDS011;19763;55.798;37.782;2023-01-04T07:53:34;2.15;;;1.88;;
33421;SDS011;19763;55.798;37.782;2023-01-04T07:55:59;2.17;;;1.90;;
33421;SDS011;19763;55.798;37.782;2023-01-04T07:58:25;3.00;;;2.00;;
33421;SDS011;19763;55.798;37.782;2023-01-04T08:00:55;2.75;;;2.20;;
33421;SDS011;19763;55.798;37.782;2023-01-04T08:03:21;2.50;;;2.10;;
33421;SDS011;19763;55.798;37.782;2023-01-04T08:05:47;2.67;;;1.58;;
33421;SDS011;19763;55.798;37.782;2023-01-04T08:08:13;2.03;;;1.77;;
33421;SDS011;19763;55.798;37.782;2023-01-04T08:10:38;3.25;;;2.22;;
33421;SDS011;19763;55.798;37.782;2023-01-04T08:13:04;2.55;;;1.90;;
33421;SDS011;19763;55.798;37.782;2023-01-04T08:15:29;3.35;;;2.10;;
33421;SDS011;19763;55.798;37.782;2023-01-04T08:17:55;2.72;;;2.15;;
33421;SDS011;19763;55.798;37.782;2023-01-04T08:20:21;3.80;;;2.22;;
33421;SDS011;19763;55.798;37.782;2023-01-04T08:22:46;4.40;;;2.30;;
33421;SDS011;19763;55.798;37.782;2023-01-04T08:25:12;3.55;;;2.00;;
33421;SDS011;19763;55.798;37.782;2023-01-04T08:27:38;3.25;;;2.20;;
33421;SDS011;19763;55.798;37.782;2023-01-04T08:30:06;4.32;;;2.22;;
33421;SDS011;19763;55.798;37.782;2023-01-04T08:32:32;3.50;;;2.00;;
33421;SDS011;19763;55.798;37.782;2023-01-04T08:34:57;2.67;;;2.20;;
33421;SDS011;19763;55.798;37.782;2023-01-04T08:37:23;2.42;;;2.22;;
33421;SDS011;19763;55.798;37.782;2023-01-04T08:39:48;2.90;;;2.40;;
33421;SDS011;19763;55.798;37.782;2023-01-04T08:42:14;3.42;;;2.28;;
33421;SDS011;19763;55.798;37.782;2023-01-04T08:44:40;2.63;;;2.42;;
33421;SDS011;19763;55.798;37.782;2023-01-04T08:47:05;2.53;;;2.22;;
33421;SDS011;19763;55.798;37.782;2023-01-04T08:49:31;3.53;;;2.10;;
33421;SDS011;19763;55.798;37.782;2023-01-04T08:51:56;2.60;;;2.35;;
33421;SDS011;19763;55.798;37.782;2023-01-04T08:54:22;4.93;;;2.78;;
33421;SDS011;19763;55.798;37.782;2023-01-04T08:56:48;3.15;;;2.88;;
33421;SDS011;19763;55.798;37.782;2023-01-04T08:59:13;4.50;;;3.05;;
33421;SDS011;19763;55.798;37.782;2023-01-04T09:01:39;4.38;;;3.33;;
33421;SDS011;19763;55.798;37.782;2023-01-04T09:04:06;4.28;;;3.35;;
33421;SDS011;19763;55.798;37.782;2023-01-04T09:06:32;3.88;;;3.40;;
33421;SDS011;19763;55.798;37.782;2023-01-04T09:08:58;5.82;;;4.10;;
33421;SDS011;19763;55.798;37.782;2023-01-04T09:11:23;5.43;;;4.45;;
33421;SDS011;19763;55.798;37.782;2023-01-04T09:13:53;5.40;;;4.72;;
33421;SDS011;19763;55.798;37.782;2023-01-04T09:16:21;6.65;;;5.30;;
33421;SDS011;19763;55.798;37.782;2023-01-04T09:18:47;6.22;;;5.35;;
33421;SDS011;19763;55.798;37.782;2023-01-04T09:21:17;7.40;;;5.53;;
33421;SDS011;19763;55.798;37.782;2023-01-04T09:23:45;6.82;;;5.30;;
33421;SDS011;19763;55.798;37.782;2023-01-04T09:26:12;8.85;;;6.20;;
33421;SDS011;19763;55.798;37.782;2023-01-04T09:28:39;8.20;;;6.10;;
33421;SDS011;19763;55.798;37.782;2023-01-04T09:33:35;7.97;;;6.47;;
33421;SDS011;19763;55.798;37.782;2023-01-04T09:36:04;7.72;;;5.93;;
33421;SDS011;19763;55.798;37.782;2023-01-04T09:38:32;8.88;;;5.72;;
33421;SDS011;19763;55.798;37.782;2023-01-04T09:44:00;7.85;;;5.88;;
33421;SDS011;19763;55.798;37.782;2023-01-04T09:49:30;7.28;;;5.63;;
33421;SDS011;19763;55.798;37.782;2023-01-04T09:54:43;6.82;;;5.45;;
33421;SDS011;19763;55.798;37.782;2023-01-04T09:57:32;7.05;;;5.38;;
33421;SDS011;19763;55.798;37.782;2023-01-04T10:00:17;7.82;;;5.50;;
33421;SDS011;19763;55.798;37.782;2023-01-04T10:05:34;8.00;;;5.70;;
33421;SDS011;19763;55.798;37.782;2023-01-04T10:08:00;6.75;;;5.22;;
33421;SDS011;19763;55.798;37.782;2023-01-04T10:11:12;7.65;;;5.65;;
33421;SDS011;19763;55.798;37.782;2023-01-04T10:13:38;8.48;;;5.78;;
33421;SDS011;19763;55.798;37.782;2023-01-04T10:21:49;8.02;;;5.80;;
33421;SDS011;19763;55.798;37.782;2023-01-04T10:27:05;8.30;;;6.35;;
33421;SDS011;19763;55.798;37.782;2023-01-04T10:29:47;8.85;;;6.60;;
33421;SDS011;19763;55.798;37.782;2023-01-04T10:34:58;8.38;;;5.95;;
33421;SDS011;19763;55.798;37.782;2023-01-04T10:37:24;9.38;;;6.18;;
33421;SDS011;19763;55.798;37.782;2023-01-04T10:40:01;9.40;;;6.68;;
33421;SDS011;19763;55.798;37.782;2023-01-04T10:42:37;8.88;;;6.53;;
33421;SDS011;19763;55.798;37.782;2023-01-04T10:48:51;8.55;;;6.65;;
33421;SDS011;19763;55.798;37.782;2023-01-04T10:51:28;9.48;;;6.40;;
33421;SDS011;19763;55.798;37.782;2023-01-04T10:54:02;9.23;;;6.30;;
33421;SDS011;19763;55.798;37.782;2023-01-04T10:57:03;9.15;;;7.22;;
33421;SDS011;19763;55.798;37.782;2023-01-04T10:59:38;8.60;;;6.22;;
33421;SDS011;19763;55.798;37.782;2023-01-04T11:04:36;9.35;;;6.65;;
33421;SDS011;19763;55.798;37.782;2023-01-04T11:07:07;8.60;;;6.53;;
33421;SDS011;19763;55.798;37.782;2023-01-04T11:09:44;7.57;;;5.75;;
33421;SDS011;19763;55.798;37.782;2023-01-04T11:12:16;8.82;;;6.10;;
33421;SDS011;19763;55.798;37.782;2023-01-04T11:14:46;7.97;;;5.70;;
33421;SDS011;19763;55.798;37.782;2023-01-04T11:17:12;7.82;;;5.22;;
33421;SDS011;19763;55.798;37.782;2023-01-04T11:19:38;6.82;;;4.90;;
33421;SDS011;19763;55.798;37.782;2023-01-04T11:22:09;5.97;;;4.65;;
33421;SDS011;19763;55.798;37.782;2023-01-04T11:24:39;5.70;;;4.22;;
33421;SDS011;19763;55.798;37.782;2023-01-04T11:27:16;5.00;;;3.95;;
33421;SDS011;19763;55.798;37.782;2023-01-04T11:29:50;5.85;;;3.65;;
33421;SDS011;19763;55.798;37.782;2023-01-04T11:35:04;6.55;;;4.47;;
33421;SDS011;19763;55.798;37.782;2023-01-04T11:37:40;5.68;;;3.85;;
33421;SDS011;19763;55.798;37.782;2023-01-04T11:42:42;6.65;;;4.20;;
33421;SDS011;19763;55.798;37.782;2023-01-04T11:45:23;6.32;;;4.03;;
33421;SDS011;19763;55.798;37.782;2023-01-04T11:47:55;5.40;;;4.20;;
33421;SDS011;19763;55.798;37.782;2023-01-04T11:53:27;6.45;;;4.75;;
33421;SDS011;19763;55.798;37.782;2023-01-04T11:56:18;7.35;;;5.47;;
33421;SDS011;19763;55.798;37.782;2023-01-04T12:01:31;6.72;;;5.43;;
33421;SDS011;19763;55.798;37.782;2023-01-04T12:03:58;9.07;;;5.32;;
33421;SDS011;19763;55.798;37.782;2023-01-04T12:06:31;6.13;;;5.00;;
33421;SDS011;19763;55.798;37.782;2023-01-04T12:09:18;5.78;;;4.57;;
33421;SDS011;19763;55.798;37.782;2023-01-04T12:11:47;6.05;;;3.65;;
33421;SDS011;19763;55.798;37.782;2023-01-04T12:14:19;6.10;;;3.72;;
33421;SDS011;19763;55.798;37.782;2023-01-04T12:19:31;5.40;;;3.58;;
33421;SDS011;19763;55.798;37.782;2023-01-04T12:22:02;6.45;;;3.55;;
33421;SDS011;19763;55.798;37.782;2023-01-04T12:24:30;4.93;;;3.38;;
33421;SDS011;19763;55.798;37.782;2023-01-04T12:26:58;4.63;;;2.75;;
33421;SDS011;19763;55.798;37.782;2023-01-04T12:29:33;3.08;;;2.38;;
33421;SDS011;19763;55.798;37.782;2023-01-04T12:37:02;4.05;;;2.70;;
33421;SDS011;19763;55.798;37.782;2023-01-04T12:39:43;3.10;;;2.80;;
33421;SDS011;19763;55.798;37.782;2023-01-04T12:42:20;3.53;;;2.65;;
33421;SDS011;19763;55.798;37.782;2023-01-04T12:50:17;3.88;;;2.55;;
33421;SDS011;19763;55.798;37.782;2023-01-04T12:52:45;4.57;;;2.80;;
33421;SDS011;19763;55.798;37.782;2023-01-04T12:57:56;3.17;;;2.72;;
33421;SDS011;19763;55.798;37.782;2023-01-04T13:08:12;2.80;;;2.42;;
33421;SDS011;19763;55.798;37.782;2023-01-04T13:10:40;3.40;;;2.38;;
33421;SDS011;19763;55.798;37.782;2023-01-04T13:13:23;2.60;;;2.20;;
33421;SDS011;19763;55.798;37.782;2023-01-04T13:18:49;4.63;;;2.40;;
33421;SDS011;19763;55.798;37.782;2023-01-04T13:24:26;3.70;;;2.92;;
33421;SDS011;19763;55.798;37.782;2023-01-04T13:27:05;2.65;;;2.20;;
33421;SDS011;19763;55.798;37.782;2023-01-04T13:29:33;3.38;;;2.33;;
33421;SDS011;19763;55.798;37.782;2023-01-04T13:32:01;2.97;;;2.40;;
33421;SDS011;19763;55.798;37.782;2023-01-04T13:37:05;4.55;;;1.90;;
33421;SDS011;19763;55.798;37.782;2023-01-04T13:39:35;2.35;;;2.15;;
33421;SDS011;19763;55.798;37.782;2023-01-04T13:42:32;3.78;;;2.05;;
33421;SDS011;19763;55.798;37.782;2023-01-04T13:47:38;4.13;;;2.10;;
33421;SDS011;19763;55.798;37.782;2023-01-04T13:50:05;2.83;;;2.15;;
33421;SDS011;19763;55.798;37.782;2023-01-04T13:52:59;3.63;;;2.50;;
33421;SDS011;19763;55.798;37.782;2023-01-04T13:57:56;3.95;;;2.22;;
33421;SDS011;19763;55.798;37.782;2023-01-04T14:05:54;2.65;;;2.08;;
33421;SDS011;19763;55.798;37.782;2023-01-04T14:11:18;4.45;;;2.10;;
33421;SDS011;19763;55.798;37.782;2023-01-04T14:22:36;2.80;;;2.35;;
33421;SDS011;19763;55.798;37.782;2023-01-04T14:30:49;3.08;;;2.60;;
33421;SDS011;19763;55.798;37.782;2023-01-04T14:38:38;4.70;;;2.80;;
33421;SDS011;19763;55.798;37.782;2023-01-04T14:44:32;5.32;;;3.40;;
33421;SDS011;19763;55.798;37.782;2023-01-04T14:46:46;4.43;;;2.92;;
33421;SDS011;19763;55.798;37.782;2023-01-04T14:49:14;10.25;;;5.18;;
33421;SDS011;19763;55.798;37.782;2023-01-04T14:51:47;5.97;;;3.47;;
33421;SDS011;19763;55.798;37.782;2023-01-04T14:54:17;8.30;;;3.97;;
33421;SDS011;19763;55.798;37.782;2023-01-04T14:56:43;6.00;;;3.60;;
33421;SDS011;19763;55.798;37.782;2023-01-04T14:59:09;5.57;;;3.70;;
33421;SDS011;19763;55.798;37.782;2023-01-04T15:01:35;8.07;;;4.22;;
33421;SDS011;19763;55.798;37.782;2023-01-04T15:04:04;7.60;;;4.28;;
33421;SDS011;19763;55.798;37.782;2023-01-04T15:06:31;7.35;;;4.72;;
33421;SDS011;19763;55.798;37.782;2023-01-04T15:08:57;8.43;;;5.32;;
33421;SDS011;19763;55.798;37.782;2023-01-04T15:11:23;7.47;;;4.95;;
33421;SDS011;19763;55.798;37.782;2023-01-04T15:13:48;9.30;;;5.72;;
33421;SDS011;19763;55.798;37.782;2023-01-04T15:16:15;7.90;;;4.95;;
33421;SDS011;19763;55.798;37.782;2023-01-04T15:18:43;10.15;;;5.95;;
33421;SDS011;19763;55.798;37.782;2023-01-04T15:21:09;9.63;;;5.55;;
33421;SDS011;19763;55.798;37.782;2023-01-04T15:23:36;7.72;;;4.97;;
33421;SDS011;19763;55.798;37.782;2023-01-04T15:26:05;9.30;;;5.25;;
33421;SDS011;19763;55.798;37.782;2023-01-04T15:28:32;9.25;;;5.38;;
33421;SDS011;19763;55.798;37.782;2023-01-04T15:30:58;8.75;;;4.82;;
33421;SDS011;19763;55.798;37.782;2023-01-04T15:33:24;9.52;;;4.85;;
33421;SDS011;19763;55.798;37.782;2023-01-04T15:35:59;6.45;;;4.10;;
33421;SDS011;19763;55.798;37.782;2023-01-04T15:38:27;6.28;;;4.65;;
33421;SDS011;19763;55.798;37.782;2023-01-04T15:40:58;5.53;;;4.13;;
33421;SDS011;19763;55.798;37.782;2023-01-04T15:43:24;6.80;;;4.35;;
33421;SDS011;19763;55.798;37.782;2023-01-04T15:45:50;7.22;;;4.63;;
33421;SDS011;19763;55.798;37.782;2023-01-04T15:48:15;8.43;;;4.70;;
33421;SDS011;19763;55.798;37.782;2023-01-04T15:50:41;7.47;;;4.97;;
33421;SDS011;19763;55.798;37.782;2023-01-04T15:53:06;7.05;;;4.68;;
33421;SDS011;19763;55.798;37.782;2023-01-04T15:55:33;7.30;;;4.75;;
33421;SDS011;19763;55.798;37.782;2023-01-04T15:58:00;8.05;;;4.88;;
33421;SDS011;19763;55.798;37.782;2023-01-04T16:00:26;7.60;;;4.38;;
33421;SDS011;19763;55.798;37.782;2023-01-04T16:02:52;6.45;;;4.97;;
33421;SDS011;19763;55.798;37.782;2023-01-04T16:05:17;6.93;;;4.68;;
33421;SDS011;19763;55.798;37.782;2023-01-04T16:07:45;7.70;;;4.57;;
33421;SDS011;19763;55.798;37.782;2023-01-04T16:10:11;6.05;;;3.92;;
33421;SDS011;19763;55.798;37.782;2023-01-04T16:12:38;4.72;;;3.95;;
33421;SDS011;19763;55.798;37.782;2023-01-04T16:15:17;8.23;;;5.38;;
33421;SDS011;19763;55.798;37.782;2023-01-04T16:17:45;7.40;;;4.07;;
33421;SDS011;19763;55.798;37.782;2023-01-04T16:20:12;7.15;;;4.45;;
33421;SDS011;19763;55.798;37.782;2023-01-04T16:22:39;7.75;;;4.43;;
33421;SDS011;19763;55.798;37.782;2023-01-04T16:25:06;8.25;;;5.32;;
33421;SDS011;19763;55.798;37.782;2023-01-04T16:27:33;6.28;;;4.60;;
33421;SDS011;19763;55.798;37.782;2023-01-04T16:30:00;7.65;;;5.22;;
33421;SDS011;19763;55.798;37.782;2023-01-04T16:32:28;6.22;;;4.43;;
33421;SDS011;19763;55.798;37.782;2023-01-04T16:34:54;8.27;;;4.30;;
33421;SDS011;19763;55.798;37.782;2023-01-04T16:37:19;6.25;;;4.45;;
33421;SDS011;19763;55.798;37.782;2023-01-04T16:39:47;6.75;;;4.53;;
33421;SDS011;19763;55.798;37.782;2023-01-04T16:42:13;5.95;;;4.43;;
33421;SDS011;19763;55.798;37.782;2023-01-04T16:44:39;5.93;;;4.70;;
33421;SDS011;19763;55.798;37.782;2023-01-04T16:47:05;6.78;;;4.63;;
33421;SDS011;19763;55.798;37.782;2023-01-04T16:49:31;6.65;;;4.53;;
33421;SDS011;19763;55.798;37.782;2023-01-04T16:51:57;6.75;;;4.65;;
33421;SDS011;19763;55.798;37.782;2023-01-04T16:54:22;6.45;;;4.38;;
33421;SDS011;19763;55.798;37.782;2023-01-04T16:56:48;7.10;;;4.97;;
33421;SDS011;19763;55.798;37.782;2023-01-04T16:59:14;9.43;;;4.90;;
33421;SDS011;19763;55.798;37.782;2023-01-04T17:01:43;8.98;;;5.28;;
33421;SDS011;19763;55.798;37.782;2023-01-04T17:04:11;7.65;;;5.18;;
33421;SDS011;19763;55.798;37.782;2023-01-04T17:06:38;6.28;;;4.47;;
33421;SDS011;19763;55.798;37.782;2023-01-04T17:09:05;7.13;;;4.80;;